Bogota, Colombia
Current Conditions -  °F | °C
As of 10:00 AM on Saturday 22 Nov 2014 (Local Time) from SKBO Reporting Station
Scattered Clouds Scattered Clouds  
Wind Chill: 17°   Ceiling: Unl
Heat Index: 17°   Visibility: 5mi
Dew Point: 12°   Wind: 3mph
Humidity: 72%   Direction: 350°N
Pressure: 30.34"   Gusts: NA
Location:  4.63°N, 74.09°W
Report Text: SKBO 221500Z 35003KT 8000 SCT020 17/12 A3034 RMK HZ
Loading
Personal Weather Stations






























Interactive Weather Map New forecast layout! Learn more

10-Day Weather Forecast

Advertisements
Track Severe Weather on mobile